createdAt,value
2019-02-04T00:02:00.698Z,3.90
2019-02-04T00:04:30.659Z,2.90
2019-02-04T00:07:00.128Z,3.40
2019-02-04T00:09:29.191Z,3.00
2019-02-04T00:11:58.266Z,3.27
2019-02-04T00:14:27.306Z,3.03
2019-02-04T00:16:56.371Z,2.90
2019-02-04T00:19:25.435Z,2.97
2019-02-04T00:21:54.497Z,2.90
2019-02-04T00:24:23.565Z,3.63
2019-02-04T00:26:52.631Z,3.40
2019-02-04T00:29:21.697Z,4.20
2019-02-04T00:31:50.835Z,5.17
2019-02-04T00:34:19.892Z,3.17
2019-02-04T00:36:48.937Z,3.27
2019-02-04T00:39:18.011Z,3.07
2019-02-04T00:41:47.095Z,3.40
2019-02-04T00:44:16.075Z,2.90
2019-02-04T00:46:52.121Z,3.20
2019-02-04T00:49:16.823Z,3.23
2019-02-04T00:51:45.916Z,2.83
2019-02-04T00:54:15.398Z,3.20
2019-02-04T00:56:44.462Z,3.20
2019-02-04T00:59:13.510Z,3.50
2019-02-04T01:01:42.756Z,3.33
2019-02-04T01:04:11.891Z,3.30
2019-02-04T01:06:40.934Z,3.50
2019-02-04T01:09:10.511Z,3.60
2019-02-04T01:11:39.566Z,3.43
2019-02-04T01:14:08.631Z,3.10
2019-02-04T01:16:37.674Z,3.43
2019-02-04T01:19:06.718Z,3.63
2019-02-04T01:21:35.784Z,3.70
2019-02-04T01:24:05.008Z,3.50
2019-02-04T01:26:34.058Z,3.30
2019-02-04T01:29:03.103Z,3.40
2019-02-04T01:31:32.160Z,3.50
2019-02-04T01:34:01.358Z,3.77
2019-02-04T01:36:30.358Z,3.43
2019-02-04T01:38:59.393Z,3.60
2019-02-04T01:41:28.754Z,3.00
2019-02-04T01:43:57.819Z,3.43
2019-02-04T01:46:26.871Z,3.83
2019-02-04T01:48:56.143Z,3.93
2019-02-04T01:51:25.369Z,3.73
2019-02-04T01:53:54.685Z,3.43
2019-02-04T01:56:23.651Z,4.30
2019-02-04T01:58:52.738Z,3.83
2019-02-04T02:01:21.956Z,3.33
2019-02-04T02:03:50.967Z,3.90
2019-02-04T02:06:20.588Z,3.50
2019-02-04T02:08:50.655Z,3.50
2019-02-04T02:11:19.763Z,4.27
2019-02-04T02:13:48.775Z,3.70
2019-02-04T02:16:17.853Z,3.90
2019-02-04T02:18:46.929Z,3.87
2019-02-04T02:21:16.365Z,4.73
2019-02-04T02:23:45.407Z,3.43
2019-02-04T02:26:14.459Z,3.93
2019-02-04T02:28:43.515Z,3.43
2019-02-04T02:31:12.580Z,3.87
2019-02-04T02:33:41.683Z,3.60
2019-02-04T02:36:10.798Z,4.37
2019-02-04T02:38:39.790Z,4.13
2019-02-04T02:41:08.876Z,3.67
2019-02-04T02:43:38.149Z,4.13
2019-02-04T02:46:07.204Z,3.57
2019-02-04T02:48:36.186Z,3.90
2019-02-04T02:51:05.535Z,3.50
2019-02-04T02:53:34.661Z,3.30
2019-02-04T02:56:03.928Z,3.47
2019-02-04T02:58:33.067Z,3.63
2019-02-04T03:01:02.242Z,3.53
2019-02-04T03:03:31.305Z,3.77
2019-02-04T03:06:00.934Z,3.30
2019-02-04T03:08:29.978Z,3.73
2019-02-04T03:10:59.120Z,3.50
2019-02-04T03:13:28.166Z,3.40
2019-02-04T03:15:57.704Z,3.00
2019-02-04T03:18:26.698Z,3.60
2019-02-04T03:20:55.764Z,3.30
2019-02-04T03:23:24.838Z,3.33
2019-02-04T03:25:53.994Z,3.20
2019-02-04T03:28:23.100Z,3.20
2019-02-04T03:30:52.155Z,3.30
2019-02-04T03:33:21.165Z,2.83
2019-02-04T03:35:50.276Z,2.87
2019-02-04T03:38:19.386Z,2.97
2019-02-04T03:40:48.353Z,2.77
2019-02-04T03:43:17.416Z,3.00
2019-02-04T03:45:46.754Z,3.23
2019-02-04T03:48:16.095Z,3.43
2019-02-04T03:50:45.081Z,3.10
2019-02-04T03:53:14.123Z,3.33
2019-02-04T03:55:43.181Z,3.43
2019-02-04T03:58:12.217Z,3.27
2019-02-04T04:00:41.883Z,3.37
2019-02-04T04:03:11.202Z,3.07
2019-02-04T04:05:40.341Z,3.00
2019-02-04T04:08:09.461Z,3.03
2019-02-04T04:10:38.579Z,3.33
2019-02-04T04:13:07.708Z,3.07
2019-02-04T04:15:36.791Z,3.37
2019-02-04T04:18:15.626Z,3.07
2019-02-04T04:20:36.721Z,3.20
2019-02-04T04:23:05.853Z,3.27
2019-02-04T04:25:34.887Z,3.00
2019-02-04T04:28:05.204Z,3.87
2019-02-04T04:30:34.541Z,3.40
2019-02-04T04:33:03.685Z,3.07
2019-02-04T04:35:32.921Z,3.33
2019-02-04T04:38:02.805Z,3.30
2019-02-04T04:40:31.872Z,2.80
2019-02-04T04:43:00.925Z,3.07
2019-02-04T04:45:30.454Z,3.00
2019-02-04T04:47:59.795Z,3.50
2019-02-04T04:50:28.930Z,3.20
2019-02-04T04:52:57.925Z,3.40
2019-02-04T04:55:27.359Z,3.33
2019-02-04T04:57:56.822Z,3.27
2019-02-04T05:00:31.284Z,3.50
2019-02-04T05:03:00.442Z,3.17
2019-02-04T05:05:29.523Z,2.83
2019-02-04T05:07:58.563Z,2.80
2019-02-04T05:10:27.630Z,3.10
2019-02-04T05:12:56.669Z,3.10
2019-02-04T05:15:26.943Z,3.40
2019-02-04T05:17:56.034Z,2.93
2019-02-04T05:20:25.492Z,3.60
2019-02-04T05:22:54.555Z,3.30
2019-02-04T05:25:23.626Z,3.20
2019-02-04T05:27:53.130Z,3.00
2019-02-04T05:30:23.223Z,3.40
2019-02-04T05:32:52.264Z,3.53
2019-02-04T05:35:21.332Z,3.10
2019-02-04T05:37:50.380Z,3.23
2019-02-04T05:40:19.706Z,3.23
2019-02-04T05:42:49.170Z,3.40
2019-02-04T05:45:19.200Z,3.30
2019-02-04T05:47:48.704Z,3.43
2019-02-04T05:50:19.177Z,3.77
2019-02-04T05:52:48.516Z,3.50
2019-02-04T05:55:18.792Z,4.00
2019-02-04T05:57:47.922Z,4.17
2019-02-04T06:00:24.088Z,3.70
2019-02-04T06:02:53.179Z,3.87
2019-02-04T06:05:22.238Z,4.03
2019-02-04T06:07:51.275Z,4.17
2019-02-04T06:10:20.617Z,4.10
2019-02-04T06:12:49.724Z,4.37
2019-02-04T06:15:18.812Z,4.30
2019-02-04T06:17:47.855Z,4.10
2019-02-04T06:20:18.377Z,3.97
2019-02-04T06:22:47.427Z,4.73
2019-02-04T06:25:16.492Z,4.00
2019-02-04T06:27:45.609Z,4.30
2019-02-04T06:30:14.772Z,4.20
2019-02-04T06:32:43.827Z,3.67
2019-02-04T06:35:13.388Z,3.80
2019-02-04T06:37:42.529Z,4.10
2019-02-04T06:40:12.313Z,4.10
2019-02-04T06:42:41.462Z,3.83
2019-02-04T06:45:12.210Z,3.90
2019-02-04T06:47:41.346Z,4.03
2019-02-04T06:50:12.540Z,3.73
2019-02-04T06:52:42.408Z,4.10
2019-02-04T06:55:16.811Z,3.70
2019-02-04T06:57:45.881Z,4.00
2019-02-04T07:00:18.798Z,3.70
2019-02-04T07:02:48.194Z,4.03
2019-02-04T07:05:17.605Z,4.10
2019-02-04T07:07:46.730Z,3.73
2019-02-04T07:10:18.352Z,3.90
2019-02-04T07:12:47.535Z,3.90
2019-02-04T07:15:16.577Z,3.70
2019-02-04T07:17:45.655Z,3.70
2019-02-04T07:20:17.914Z,3.90
2019-02-04T07:22:46.993Z,4.03
2019-02-04T07:25:16.383Z,3.67
2019-02-04T07:27:45.506Z,3.70
2019-02-04T07:30:17.215Z,4.70
2019-02-04T07:32:46.506Z,4.67
2019-02-04T07:35:16.272Z,4.10
2019-02-04T07:37:45.561Z,5.20
2019-02-04T07:40:25.630Z,3.93
2019-02-04T07:42:54.809Z,3.58
2019-02-04T07:45:24.151Z,4.07
2019-02-04T07:47:53.606Z,4.17
2019-02-04T07:50:22.852Z,4.43
2019-02-04T07:52:52.125Z,4.00
2019-02-04T07:55:21.190Z,4.67
2019-02-04T07:57:50.286Z,4.30
2019-02-04T08:00:25.068Z,3.60
2019-02-04T08:02:54.461Z,3.90
2019-02-04T08:05:23.830Z,4.50
2019-02-04T08:07:52.978Z,4.27
2019-02-04T08:10:22.030Z,4.17
2019-02-04T08:13:01.105Z,3.93
2019-02-04T08:15:26.978Z,4.10
2019-02-04T08:17:56.704Z,3.77
2019-02-04T08:20:26.401Z,4.07
2019-02-04T08:22:55.566Z,4.03
2019-02-04T08:25:26.000Z,3.70
2019-02-04T08:27:55.400Z,3.57
2019-02-04T08:30:29.573Z,3.80
2019-02-04T08:32:58.991Z,3.60
2019-02-04T08:35:30.378Z,3.40
2019-02-04T08:37:59.878Z,3.73
2019-02-04T08:40:28.943Z,3.57
2019-02-04T08:42:58.386Z,3.57
2019-02-04T08:45:27.591Z,3.27
2019-02-04T08:47:56.722Z,3.30
2019-02-04T08:50:26.103Z,3.50
2019-02-04T08:52:55.402Z,3.57
2019-02-04T08:55:24.642Z,3.40
2019-02-04T08:57:54.298Z,3.63
2019-02-04T09:00:26.496Z,2.80
2019-02-04T09:02:55.597Z,3.37
2019-02-04T09:05:25.856Z,3.30
2019-02-04T09:07:54.912Z,3.40
2019-02-04T09:10:27.233Z,3.20
2019-02-04T09:12:56.393Z,3.10
2019-02-04T09:15:25.528Z,3.20
2019-02-04T09:17:55.059Z,3.50
2019-02-04T09:20:24.222Z,3.10
2019-02-04T09:22:53.561Z,3.30
2019-02-04T09:25:23.854Z,4.43
2019-02-04T09:27:53.663Z,3.47
2019-02-04T09:30:24.301Z,3.80
2019-02-04T09:32:54.216Z,3.23
2019-02-04T09:35:23.734Z,4.03
2019-02-04T09:37:52.926Z,3.40
2019-02-04T09:40:24.753Z,3.37
2019-02-04T09:42:54.116Z,3.83
2019-02-04T09:45:26.967Z,3.40
2019-02-04T09:47:54.059Z,3.60
2019-02-04T09:50:23.751Z,3.33
2019-02-04T09:52:52.886Z,3.60
2019-02-04T09:55:24.691Z,3.63
2019-02-04T09:57:53.930Z,3.70
2019-02-04T10:00:28.096Z,3.23
2019-02-04T10:02:57.524Z,3.40
2019-02-04T10:05:27.764Z,3.50
2019-02-04T10:07:56.845Z,3.43
2019-02-04T10:10:26.730Z,3.50
2019-02-04T10:12:56.246Z,3.50
2019-02-04T10:15:27.812Z,3.40
2019-02-04T10:17:56.992Z,3.57
2019-02-04T10:20:33.574Z,3.30
2019-02-04T10:22:57.673Z,3.27
2019-02-04T10:25:29.023Z,3.77
2019-02-04T10:27:58.252Z,3.50
2019-02-04T10:30:27.393Z,3.50
2019-02-04T10:32:56.532Z,4.00
2019-02-04T10:35:25.725Z,3.60
2019-02-04T10:37:54.848Z,3.70
2019-02-04T10:40:25.106Z,3.80
2019-02-04T10:42:54.175Z,3.30
2019-02-04T10:45:23.359Z,3.73
2019-02-04T10:47:52.491Z,3.70
2019-02-04T10:50:23.938Z,3.47
2019-02-04T10:52:53.104Z,3.07
2019-02-04T10:55:22.403Z,3.40
2019-02-04T10:57:51.725Z,3.60
2019-02-04T11:00:25.504Z,3.77
2019-02-04T11:02:54.669Z,3.37
2019-02-04T11:05:26.010Z,3.40
2019-02-04T11:07:55.168Z,3.83
2019-02-04T11:10:28.536Z,3.90
2019-02-04T11:12:57.903Z,3.77
2019-02-04T11:15:27.047Z,3.53
2019-02-04T11:17:56.606Z,3.77
2019-02-04T11:20:27.065Z,3.80
2019-02-04T11:22:56.480Z,4.17
2019-02-04T11:25:25.610Z,4.13
2019-02-04T11:27:54.992Z,4.17
2019-02-04T11:30:29.624Z,4.50
2019-02-04T11:32:58.748Z,4.00
2019-02-04T11:35:28.145Z,3.90
2019-02-04T11:37:57.319Z,4.30
2019-02-04T11:40:31.940Z,4.03
2019-02-04T11:43:01.210Z,4.47
2019-02-04T11:45:30.834Z,4.13
2019-02-04T11:48:00.002Z,4.10
2019-02-04T11:50:29.335Z,4.70
2019-02-04T11:52:58.475Z,4.27
2019-02-04T11:55:27.630Z,4.43
2019-02-04T11:57:56.838Z,4.07
2019-02-04T12:00:27.766Z,4.37
2019-02-04T12:02:57.794Z,5.20
2019-02-04T12:05:26.862Z,4.80
2019-02-04T12:07:55.988Z,4.70
2019-02-04T12:10:33.921Z,4.43
2019-02-04T12:13:03.238Z,4.47
2019-02-04T12:15:32.785Z,4.67
2019-02-04T12:18:01.858Z,4.60
2019-02-04T12:20:31.014Z,4.10
2019-02-04T12:23:00.071Z,4.60
2019-02-04T12:25:29.754Z,4.73
2019-02-04T12:27:59.088Z,4.07
2019-02-04T12:30:31.195Z,4.20
2019-02-04T12:33:00.563Z,4.53
2019-02-04T12:35:29.735Z,3.80
2019-02-04T12:37:58.863Z,4.20
2019-02-04T12:40:27.928Z,3.80
2019-02-04T12:42:57.010Z,4.77
2019-02-04T12:45:28.395Z,4.37
2019-02-04T12:48:00.732Z,4.30
2019-02-04T12:50:28.669Z,3.70
2019-02-04T12:52:57.784Z,3.90
2019-02-04T12:55:28.390Z,4.23
2019-02-04T12:57:57.456Z,4.10
2019-02-04T13:00:29.955Z,3.73
2019-02-04T13:02:59.006Z,3.87
2019-02-04T13:05:33.411Z,3.67
2019-02-04T13:08:02.461Z,4.03
2019-02-04T13:10:31.651Z,4.00
2019-02-04T13:13:00.981Z,4.33
2019-02-04T13:15:30.057Z,4.13
2019-02-04T13:17:59.334Z,4.70
2019-02-04T13:20:28.461Z,4.43
2019-02-04T13:22:58.119Z,4.50
2019-02-04T13:25:28.031Z,4.37
2019-02-04T13:27:57.078Z,4.53
2019-02-04T13:30:26.926Z,4.37
2019-02-04T13:32:55.973Z,4.27
2019-02-04T13:35:25.122Z,4.60
2019-02-04T13:37:54.622Z,4.83
2019-02-04T13:40:25.429Z,5.00
2019-02-04T13:42:54.650Z,5.00
2019-02-04T13:45:23.989Z,4.17
2019-02-04T13:47:53.792Z,4.33
2019-02-04T13:50:23.163Z,4.27
2019-02-04T13:52:52.317Z,4.80
2019-02-04T13:55:26.993Z,4.53
2019-02-04T13:57:56.064Z,4.87
2019-02-04T14:00:27.634Z,4.80
2019-02-04T14:02:59.760Z,4.87
2019-02-04T14:05:31.384Z,5.20
2019-02-04T14:08:01.820Z,4.83
2019-02-04T14:10:33.186Z,4.63
2019-02-04T14:13:02.288Z,5.00
2019-02-04T14:15:31.806Z,4.60
2019-02-04T14:18:01.100Z,4.70
2019-02-04T14:20:30.140Z,4.67
2019-02-04T14:22:59.203Z,4.10
2019-02-04T14:25:28.274Z,4.60
2019-02-04T14:27:57.427Z,4.73
2019-02-04T14:30:31.670Z,4.27
2019-02-04T14:33:00.724Z,4.50
2019-02-04T14:35:30.703Z,4.27
2019-02-04T14:37:59.955Z,4.50
2019-02-04T14:40:29.014Z,4.40
2019-02-04T14:43:13.962Z,4.70
2019-02-04T14:46:22.786Z,4.03
2019-02-04T14:49:24.343Z,4.77
2019-02-04T14:52:37.408Z,4.60
2019-02-04T14:55:49.384Z,4.47
2019-02-04T14:58:46.233Z,4.63
2019-02-04T15:02:10.483Z,4.30
2019-02-04T15:04:51.562Z,4.33
2019-02-04T15:07:52.837Z,4.73
2019-02-04T15:10:54.171Z,4.13
2019-02-04T15:13:48.015Z,4.30
2019-02-04T15:16:23.096Z,4.30
2019-02-04T15:19:32.041Z,5.07
2019-02-04T15:22:11.319Z,3.93
2019-02-04T15:25:34.227Z,5.30
2019-02-04T15:28:27.075Z,4.47
2019-02-04T15:31:19.501Z,4.17
2019-02-04T15:34:00.548Z,4.17
2019-02-04T15:37:12.711Z,4.40
2019-02-04T15:40:05.763Z,4.57
2019-02-04T15:43:27.877Z,4.73
2019-02-04T15:46:36.538Z,4.37
2019-02-04T15:49:55.785Z,4.37
2019-02-04T15:52:24.943Z,4.60
2019-02-04T15:54:54.078Z,4.47
2019-02-04T15:57:23.401Z,4.47
2019-02-04T15:59:52.483Z,4.57
2019-02-04T16:02:21.618Z,4.33
2019-02-04T16:04:50.751Z,5.17
2019-02-04T16:07:19.942Z,4.90
2019-02-04T16:09:48.986Z,5.20
2019-02-04T16:12:18.341Z,4.47
2019-02-04T16:14:47.375Z,4.87
2019-02-04T16:17:16.516Z,5.20
2019-02-04T16:19:45.840Z,5.10
2019-02-04T16:22:14.989Z,4.47
2019-02-04T16:24:44.072Z,4.77
2019-02-04T16:27:13.530Z,4.90
2019-02-04T16:29:42.598Z,5.27
2019-02-04T16:32:12.890Z,5.27
2019-02-04T16:34:43.294Z,4.80
2019-02-04T16:37:12.412Z,4.77
2019-02-04T16:39:41.558Z,5.00
2019-02-04T17:05:16.606Z,7.07
2019-02-04T17:07:45.662Z,7.50
2019-02-04T17:10:17.668Z,6.73
2019-02-04T17:12:46.814Z,6.83
2019-02-04T17:15:16.125Z,6.73
2019-02-04T17:17:45.626Z,6.90
2019-02-04T17:20:18.278Z,7.13
2019-02-04T17:22:47.417Z,6.70
2019-02-04T17:25:17.095Z,6.77
2019-02-04T17:27:46.415Z,6.73
2019-02-04T17:30:17.974Z,6.73
2019-02-04T17:32:47.207Z,6.40
2019-02-04T17:35:16.346Z,7.00
2019-02-04T17:37:45.529Z,6.67
2019-02-04T17:40:16.947Z,6.47
2019-02-04T17:42:46.237Z,6.53
2019-02-04T17:45:16.315Z,6.70
2019-02-04T17:47:46.285Z,7.20
2019-02-04T17:50:16.855Z,7.40
2019-02-04T17:52:46.086Z,6.73
2019-02-04T17:55:17.191Z,6.57
2019-02-04T17:57:46.431Z,6.67
2019-02-04T18:00:31.615Z,7.00
2019-02-04T18:03:00.927Z,6.97
2019-02-04T18:05:30.041Z,6.90
2019-02-04T18:07:59.139Z,7.17
2019-02-04T18:10:29.588Z,7.40
2019-02-04T18:12:58.649Z,7.23
2019-02-04T18:15:27.734Z,6.53
2019-02-04T18:17:56.801Z,6.83
2019-02-04T18:20:26.269Z,7.33
2019-02-04T18:22:55.366Z,7.30
2019-02-04T18:25:24.537Z,7.17
2019-02-04T18:27:53.674Z,7.17
2019-02-04T18:30:23.272Z,7.33
2019-02-04T18:32:52.624Z,7.40
2019-02-04T18:35:22.238Z,7.37
2019-02-04T18:37:51.378Z,8.10
2019-02-04T18:40:20.445Z,8.47
2019-02-04T18:42:50.853Z,8.23
2019-02-04T18:45:22.093Z,8.20
2019-02-04T18:47:51.334Z,7.40
2019-02-04T18:50:21.129Z,8.50
2019-02-04T18:52:50.564Z,8.23
2019-02-04T18:55:21.927Z,8.70
2019-02-04T18:57:51.082Z,8.70
2019-02-04T19:00:22.861Z,8.50
2019-02-04T19:02:51.952Z,8.73
2019-02-04T19:05:21.380Z,9.20
2019-02-04T19:07:50.727Z,9.07
2019-02-04T19:10:21.016Z,9.27
2019-02-04T19:12:50.177Z,10.00
2019-02-04T19:15:20.902Z,9.87
2019-02-04T19:17:51.724Z,9.77
2019-02-04T19:20:22.046Z,9.73
2019-02-04T19:22:51.530Z,9.27
2019-02-04T19:25:21.389Z,9.43
2019-02-04T19:27:50.995Z,10.57
2019-02-04T19:30:37.670Z,9.40
2019-02-04T19:33:06.927Z,10.00
2019-02-04T19:35:36.071Z,10.87
2019-02-04T19:38:05.224Z,10.17
2019-02-04T19:40:34.325Z,9.70
2019-02-04T19:43:03.456Z,10.90
2019-02-04T19:45:32.945Z,10.13
2019-02-04T19:48:03.221Z,9.83
2019-02-04T19:50:32.752Z,10.40
2019-02-04T19:53:02.766Z,10.53
2019-02-04T19:55:31.937Z,8.83
2019-02-04T19:58:01.150Z,10.90
2019-02-04T20:00:30.975Z,10.33
2019-02-04T20:03:00.127Z,11.17
2019-02-04T20:05:29.373Z,11.27
2019-02-04T20:07:58.465Z,11.00
2019-02-04T20:10:28.427Z,11.23
2019-02-04T20:12:57.570Z,11.00
2019-02-04T20:15:27.543Z,10.97
2019-02-04T20:17:56.947Z,12.00
2019-02-04T20:20:27.207Z,11.53
2019-02-04T20:22:56.987Z,12.30
2019-02-04T20:25:27.919Z,12.33
2019-02-04T20:27:57.186Z,11.87
2019-02-04T20:30:31.539Z,12.50
2019-02-04T20:33:00.653Z,12.57
2019-02-04T20:35:29.876Z,12.00
2019-02-04T20:37:59.989Z,13.10
2019-02-04T20:40:29.380Z,12.20
2019-02-04T20:42:58.462Z,12.27
2019-02-04T20:45:27.629Z,12.53
2019-02-04T20:47:56.908Z,12.60
2019-02-04T20:50:28.426Z,12.57
2019-02-04T20:52:57.632Z,12.57
2019-02-04T20:55:26.836Z,12.80
2019-02-04T20:57:55.955Z,12.73
2019-02-04T21:00:29.243Z,12.57
2019-02-04T21:02:58.319Z,13.47
2019-02-04T21:05:27.782Z,12.77
2019-02-04T21:07:56.859Z,13.33
2019-02-04T21:10:26.790Z,13.23
2019-02-04T21:12:56.252Z,12.60
2019-02-04T21:15:25.556Z,13.40
2019-02-04T21:17:54.914Z,13.80
2019-02-04T21:20:25.090Z,13.27
2019-02-04T21:22:54.178Z,13.77
2019-02-04T21:25:23.571Z,13.77
2019-02-04T21:27:52.963Z,13.30
2019-02-04T21:30:27.618Z,13.43
2019-02-04T21:32:56.884Z,14.30
2019-02-04T21:35:26.131Z,14.43
2019-02-04T21:37:55.314Z,14.90
2019-02-04T21:40:24.813Z,14.33
2019-02-04T21:42:54.094Z,14.80
2019-02-04T21:45:23.541Z,15.07
2019-02-04T21:47:52.717Z,15.53
2019-02-04T21:50:23.366Z,14.70
2019-02-04T21:52:52.917Z,14.70
2019-02-04T21:55:23.503Z,15.37
2019-02-04T21:57:52.658Z,13.90
2019-02-04T22:00:26.693Z,15.10
2019-02-04T22:02:55.896Z,14.03
2019-02-04T22:05:26.403Z,14.37
2019-02-04T22:07:55.550Z,14.83
2019-02-04T22:10:25.457Z,14.73
2019-02-04T22:12:54.663Z,14.93
2019-02-04T22:15:23.888Z,15.20
2019-02-04T22:17:53.089Z,14.67
2019-02-04T22:20:22.335Z,14.73
2019-02-04T22:22:57.501Z,14.33
2019-02-04T22:25:27.020Z,14.47
2019-02-04T22:27:56.149Z,15.47
2019-02-04T22:30:27.045Z,16.33
2019-02-04T22:32:56.379Z,14.60
2019-02-04T22:35:25.659Z,16.10
2019-02-04T22:37:54.731Z,15.53
2019-02-04T22:40:26.186Z,16.30
2019-02-04T22:42:55.537Z,16.27
2019-02-04T22:45:24.713Z,15.97
2019-02-04T22:47:54.075Z,15.73
2019-02-04T22:50:30.751Z,15.63
2019-02-04T22:53:02.309Z,15.63
2019-02-04T22:55:32.501Z,16.47
2019-02-04T22:58:01.965Z,15.63
2019-02-04T23:00:47.237Z,16.87
2019-02-04T23:03:17.965Z,16.27
2019-02-04T23:05:47.121Z,16.07
2019-02-04T23:08:16.177Z,16.07
2019-02-04T23:10:45.260Z,17.07
2019-02-04T23:13:14.427Z,15.83
2019-02-04T23:15:43.637Z,16.03
2019-02-04T23:18:13.215Z,16.50
2019-02-04T23:20:42.390Z,17.40
2019-02-04T23:23:11.550Z,16.57
2019-02-04T23:25:43.569Z,16.67
2019-02-04T23:28:11.625Z,16.87
2019-02-04T23:30:40.738Z,16.27
2019-02-04T23:33:09.889Z,17.13
2019-02-04T23:35:38.979Z,16.43
2019-02-04T23:38:08.578Z,18.10
2019-02-04T23:40:37.724Z,16.73
2019-02-04T23:43:07.275Z,16.12
2019-02-04T23:45:36.428Z,16.70
2019-02-04T23:48:07.599Z,16.87
2019-02-04T23:50:36.698Z,16.93
2019-02-04T23:53:06.060Z,16.50
2019-02-04T23:55:35.124Z,16.57
2019-02-04T23:58:04.594Z,17.03
